createdAt,value
2019-02-02T00:03:35.530Z,100.20
2019-02-02T00:06:07.399Z,94.63
2019-02-02T00:08:39.060Z,98.63
2019-02-02T00:11:10.367Z,95.47
2019-02-02T00:13:41.632Z,92.20
2019-02-02T00:16:12.900Z,88.70
2019-02-02T00:18:44.696Z,93.83
2019-02-02T00:21:16.110Z,91.03
2019-02-02T00:23:47.373Z,96.27
2019-02-02T00:26:22.795Z,94.17
2019-02-02T00:28:53.605Z,88.53
2019-02-02T00:31:25.038Z,99.13
2019-02-02T00:33:56.379Z,84.65
2019-02-02T00:36:27.643Z,93.93
2019-02-02T00:38:58.953Z,86.63
2019-02-02T00:41:30.699Z,82.63
2019-02-02T00:44:01.969Z,87.77
2019-02-02T00:46:33.227Z,90.00
2019-02-02T00:49:05.346Z,85.40
2019-02-02T00:51:37.587Z,89.90
2019-02-02T00:54:08.986Z,87.80
2019-02-02T00:56:41.633Z,90.12
2019-02-02T00:59:12.927Z,83.83
2019-02-02T01:01:45.261Z,81.97
2019-02-02T01:04:17.641Z,83.87
2019-02-02T01:06:49.408Z,88.83
2019-02-02T01:09:23.739Z,93.00
2019-02-02T01:11:55.354Z,82.07
2019-02-02T01:14:26.996Z,78.67
2019-02-02T01:16:58.709Z,89.00
2019-02-02T01:19:30.030Z,89.20
2019-02-02T01:22:01.281Z,90.90
2019-02-02T01:24:32.521Z,92.67
2019-02-02T01:27:03.844Z,87.23
2019-02-02T01:29:35.150Z,80.87
2019-02-02T01:32:06.895Z,82.90
2019-02-02T01:34:38.507Z,80.10
2019-02-02T01:37:09.802Z,91.20
2019-02-02T01:39:41.121Z,83.50
2019-02-02T01:42:13.199Z,87.53
2019-02-02T01:44:44.569Z,92.00
2019-02-02T01:47:15.878Z,85.00
2019-02-02T01:49:47.159Z,89.47
2019-02-02T01:52:18.820Z,91.03
2019-02-02T01:54:50.205Z,84.47
2019-02-02T01:57:21.909Z,91.33
2019-02-02T01:59:53.582Z,85.67
2019-02-02T02:02:24.995Z,91.83
2019-02-02T02:04:56.370Z,99.63
2019-02-02T02:07:27.620Z,89.03
2019-02-02T02:09:58.917Z,99.70
2019-02-02T02:12:30.209Z,95.27
2019-02-02T02:15:01.534Z,89.17
2019-02-02T02:17:32.827Z,91.33
2019-02-02T02:20:04.206Z,87.93
2019-02-02T02:22:41.225Z,90.37
2019-02-02T02:25:12.706Z,93.73
2019-02-02T02:27:44.149Z,92.73
2019-02-02T02:30:23.410Z,92.97
2019-02-02T02:32:55.021Z,91.93
2019-02-02T02:35:26.384Z,96.60
2019-02-02T02:37:57.735Z,104.53
2019-02-02T02:40:29.364Z,100.30
2019-02-02T02:43:00.913Z,100.67
2019-02-02T02:45:32.483Z,101.77
2019-02-02T02:48:03.724Z,90.07
2019-02-02T02:50:35.058Z,97.23
2019-02-02T02:53:06.315Z,99.53
2019-02-02T02:55:38.183Z,95.03
2019-02-02T02:58:09.511Z,101.93
2019-02-02T03:00:40.768Z,99.43
2019-02-02T03:03:12.469Z,93.67
2019-02-02T03:05:43.833Z,99.70
2019-02-02T03:08:23.281Z,101.70
2019-02-02T03:10:55.430Z,90.83
2019-02-02T03:13:26.835Z,104.73
2019-02-02T03:15:58.087Z,105.47
2019-02-02T03:18:29.341Z,88.33
2019-02-02T03:21:00.631Z,93.20
2019-02-02T03:23:31.907Z,105.63
2019-02-02T03:26:03.231Z,96.60
2019-02-02T03:28:34.939Z,104.00
2019-02-02T03:31:06.239Z,103.80
2019-02-02T03:33:37.499Z,100.10
2019-02-02T03:36:08.853Z,107.63
2019-02-02T03:38:40.100Z,109.57
2019-02-02T03:41:11.514Z,104.00
2019-02-02T03:43:42.882Z,97.20
2019-02-02T03:46:14.575Z,107.67
2019-02-02T03:48:46.193Z,110.20
2019-02-02T03:51:17.927Z,101.67
2019-02-02T03:53:49.884Z,112.60
2019-02-02T03:56:22.110Z,102.92
2019-02-02T03:59:06.167Z,106.87
2019-02-02T04:01:30.102Z,127.62
2019-02-02T04:04:01.189Z,112.83
2019-02-02T04:06:32.572Z,119.95
2019-02-02T04:09:07.828Z,109.67
2019-02-02T04:11:39.133Z,121.80
2019-02-02T04:14:11.037Z,104.63
2019-02-02T04:16:42.370Z,122.93
2019-02-02T04:19:13.860Z,115.73
2019-02-02T04:21:45.277Z,109.37
2019-02-02T04:24:16.621Z,116.17
2019-02-02T04:26:48.350Z,115.10
2019-02-02T04:29:20.048Z,117.60
2019-02-02T04:31:51.492Z,122.77
2019-02-02T04:34:23.970Z,112.10
2019-02-02T04:36:55.339Z,110.17
2019-02-02T04:39:27.051Z,112.50
2019-02-02T04:41:58.988Z,115.67
2019-02-02T04:44:31.199Z,107.40
2019-02-02T04:47:02.510Z,114.57
2019-02-02T04:49:34.407Z,118.87
2019-02-02T04:52:06.031Z,120.70
2019-02-02T04:54:37.692Z,124.97
2019-02-02T04:57:09.467Z,111.27
2019-02-02T04:59:41.536Z,111.47
2019-02-02T05:02:13.130Z,117.43
2019-02-02T05:04:44.546Z,115.70
2019-02-02T05:07:16.403Z,124.67
2019-02-02T05:09:47.840Z,120.40
2019-02-02T05:12:19.790Z,121.70
2019-02-02T05:14:51.322Z,112.77
2019-02-02T05:17:23.422Z,119.33
2019-02-02T05:19:55.606Z,112.57
2019-02-02T05:22:27.792Z,114.23
2019-02-02T05:24:59.633Z,119.87
2019-02-02T05:27:31.538Z,119.93
2019-02-02T05:30:03.393Z,116.62
2019-02-02T05:32:34.732Z,128.53
2019-02-02T05:35:06.572Z,125.43
2019-02-02T05:37:38.582Z,112.93
2019-02-02T05:40:12.907Z,117.43
2019-02-02T05:42:44.495Z,115.70
2019-02-02T05:45:18.308Z,120.83
2019-02-02T05:47:50.275Z,113.76
2019-02-02T05:50:23.611Z,118.73
2019-02-02T05:52:54.972Z,117.63
2019-02-02T05:55:26.345Z,120.30
2019-02-02T05:57:59.326Z,125.30
2019-02-02T06:00:45.026Z,127.20
2019-02-02T06:03:18.122Z,135.13
2019-02-02T06:05:49.768Z,134.43
2019-02-02T06:08:21.225Z,132.55
2019-02-02T06:10:52.593Z,127.07
2019-02-02T06:13:24.686Z,132.10
2019-02-02T06:15:56.058Z,121.47
2019-02-02T06:18:27.734Z,127.87
2019-02-02T06:20:59.102Z,142.43
2019-02-02T06:23:30.419Z,125.47
2019-02-02T06:26:02.051Z,125.03
2019-02-02T06:28:33.370Z,136.23
2019-02-02T06:31:05.660Z,123.23
2019-02-02T06:33:37.280Z,135.50
2019-02-02T06:36:08.977Z,133.53
2019-02-02T06:38:40.465Z,117.83
2019-02-02T06:41:11.717Z,120.13
2019-02-02T06:43:43.020Z,130.53
2019-02-02T06:46:14.657Z,129.33
2019-02-02T06:48:46.024Z,125.23
2019-02-02T06:51:17.383Z,126.60
2019-02-02T06:53:49.015Z,134.07
2019-02-02T06:56:21.074Z,116.10
2019-02-02T06:58:52.500Z,124.30
2019-02-02T07:01:23.879Z,115.83
2019-02-02T07:03:55.238Z,123.97
2019-02-02T07:06:26.975Z,124.70
2019-02-02T07:08:58.409Z,123.30
2019-02-02T07:11:30.107Z,122.23
2019-02-02T07:14:01.783Z,143.27
2019-02-02T07:16:33.558Z,120.42
2019-02-02T07:19:04.883Z,119.20
2019-02-02T07:21:36.245Z,127.10
2019-02-02T07:24:07.739Z,120.77
2019-02-02T07:26:39.401Z,132.40
2019-02-02T07:29:11.636Z,127.30
2019-02-02T07:31:43.076Z,130.83
2019-02-02T07:34:14.372Z,138.00
2019-02-02T07:36:46.036Z,135.32
2019-02-02T07:39:17.905Z,129.43
2019-02-02T07:41:49.302Z,135.57
2019-02-02T07:44:21.559Z,139.97
2019-02-02T07:46:54.589Z,144.13
2019-02-02T07:49:26.465Z,151.93
2019-02-02T07:52:00.811Z,146.23
2019-02-02T07:54:34.732Z,145.60
2019-02-02T07:57:06.846Z,151.30
2019-02-02T07:59:38.468Z,153.65
2019-02-02T08:02:11.808Z,153.67
2019-02-02T08:04:43.878Z,156.57
2019-02-02T08:07:16.844Z,163.40
2019-02-02T08:09:54.357Z,153.20
2019-02-02T08:12:26.764Z,162.07
2019-02-02T08:14:59.163Z,168.10
2019-02-02T08:17:32.422Z,162.10
2019-02-02T08:20:05.106Z,168.30
2019-02-02T08:22:37.019Z,154.07
2019-02-02T08:25:09.918Z,166.33
2019-02-02T08:27:41.225Z,158.33
2019-02-02T08:30:37.989Z,164.87
2019-02-02T08:33:09.751Z,148.60
2019-02-02T08:35:41.059Z,159.37
2019-02-02T08:38:13.152Z,148.73
2019-02-02T08:40:44.571Z,148.17
2019-02-02T08:43:16.556Z,165.10
2019-02-02T08:45:47.976Z,156.93
2019-02-02T08:48:19.464Z,164.70
2019-02-02T08:50:51.153Z,151.93
2019-02-02T08:53:22.996Z,162.03
2019-02-02T08:55:55.438Z,157.85
2019-02-02T08:58:26.769Z,157.70
2019-02-02T09:01:04.060Z,161.40
2019-02-02T09:03:31.430Z,147.27
2019-02-02T09:06:02.797Z,154.00
2019-02-02T09:08:34.475Z,159.40
2019-02-02T09:11:05.796Z,165.23
2019-02-02T09:13:37.468Z,161.10
2019-02-02T09:16:08.854Z,175.50
2019-02-02T09:18:42.142Z,173.97
2019-02-02T09:21:13.779Z,164.20
2019-02-02T09:23:45.539Z,172.10
2019-02-02T09:26:16.859Z,165.07
2019-02-02T09:28:48.157Z,172.47
2019-02-02T09:31:19.603Z,170.20
2019-02-02T09:33:50.921Z,179.33
2019-02-02T09:36:22.215Z,170.13
2019-02-02T09:38:53.800Z,163.13
2019-02-02T09:41:25.374Z,159.87
2019-02-02T09:43:57.787Z,163.92
2019-02-02T09:46:29.473Z,164.03
2019-02-02T09:49:00.895Z,153.83
2019-02-02T09:51:32.462Z,158.07
2019-02-02T09:54:03.857Z,160.37
2019-02-02T09:56:35.166Z,161.57
2019-02-02T09:59:09.694Z,155.53
2019-02-02T10:01:39.902Z,169.43
2019-02-02T10:04:11.182Z,159.97
2019-02-02T10:06:42.747Z,154.23
2019-02-02T10:09:14.090Z,165.93
2019-02-02T10:11:45.499Z,169.75
2019-02-02T10:14:17.086Z,162.17
2019-02-02T10:16:48.693Z,180.10
2019-02-02T10:19:20.606Z,167.80
2019-02-02T10:21:52.261Z,159.73
2019-02-02T10:24:23.957Z,157.73
2019-02-02T10:26:55.246Z,157.40
2019-02-02T10:29:28.212Z,162.53
2019-02-02T10:31:59.712Z,164.57
2019-02-02T10:34:31.345Z,152.50
2019-02-02T10:37:03.018Z,153.17
2019-02-02T10:39:34.421Z,134.67
2019-02-02T10:42:05.862Z,143.60
2019-02-02T10:44:37.318Z,143.22
2019-02-02T10:47:08.674Z,148.33
2019-02-02T10:49:40.640Z,151.53
2019-02-02T10:52:12.260Z,157.97
2019-02-02T10:54:43.970Z,156.73
2019-02-02T10:57:15.658Z,133.67
2019-02-02T10:59:48.953Z,142.50
2019-02-02T11:02:20.290Z,145.43
2019-02-02T11:04:53.526Z,151.80
2019-02-02T11:07:25.086Z,146.50
2019-02-02T11:09:56.428Z,144.27
2019-02-02T11:12:27.840Z,149.43
2019-02-02T11:14:59.244Z,149.07
2019-02-02T11:17:30.640Z,138.03
2019-02-02T11:20:02.294Z,134.43
2019-02-02T11:22:33.680Z,127.90
2019-02-02T11:25:06.546Z,145.67
2019-02-02T11:27:37.821Z,138.63
2019-02-02T11:30:11.408Z,141.73
2019-02-02T11:32:43.256Z,143.23
2019-02-02T11:35:16.117Z,152.63
2019-02-02T11:37:48.728Z,141.47
2019-02-02T11:40:23.532Z,140.33
2019-02-02T11:42:55.166Z,132.80
2019-02-02T11:45:26.884Z,133.40
2019-02-02T11:47:58.811Z,150.23
2019-02-02T11:50:30.232Z,142.80
2019-02-02T11:53:01.620Z,137.47
2019-02-02T11:55:32.912Z,144.03
2019-02-02T11:58:04.320Z,138.53
2019-02-02T12:00:41.685Z,133.73
2019-02-02T12:03:13.342Z,140.70
2019-02-02T12:05:45.318Z,138.67
2019-02-02T12:08:16.774Z,140.03
2019-02-02T12:10:48.814Z,144.73
2019-02-02T12:13:23.568Z,130.60
2019-02-02T12:15:55.020Z,146.47
2019-02-02T12:18:26.435Z,134.87
2019-02-02T12:20:58.190Z,136.00
2019-02-02T12:23:30.815Z,139.50
2019-02-02T12:26:02.786Z,129.97
2019-02-02T12:28:34.113Z,133.75
2019-02-02T12:31:08.736Z,128.85
2019-02-02T12:33:42.992Z,137.70
2019-02-02T12:36:15.824Z,136.37
2019-02-02T12:38:53.988Z,136.00
2019-02-02T12:41:29.755Z,142.95
2019-02-02T12:44:02.048Z,134.90
2019-02-02T12:46:36.220Z,144.40
2019-02-02T12:49:08.765Z,138.25
2019-02-02T12:51:40.093Z,158.57
2019-02-02T12:54:19.871Z,141.53
2019-02-02T12:56:54.226Z,145.20
2019-02-02T12:59:32.034Z,145.75
2019-02-02T13:02:04.023Z,143.50
2019-02-02T13:04:35.717Z,136.53
2019-02-02T13:07:07.034Z,148.47
2019-02-02T13:09:38.378Z,143.03
2019-02-02T13:12:10.026Z,141.73
2019-02-02T13:14:41.923Z,146.57
2019-02-02T13:17:13.498Z,150.37
2019-02-02T13:19:46.234Z,155.63
2019-02-02T13:22:17.635Z,147.03
2019-02-02T13:24:48.953Z,156.87
2019-02-02T13:27:20.342Z,156.05
2019-02-02T13:29:52.503Z,148.40
2019-02-02T13:32:25.042Z,161.50
2019-02-02T13:34:57.070Z,162.83
2019-02-02T13:37:28.606Z,154.40
2019-02-02T13:40:03.672Z,167.53
2019-02-02T13:42:35.745Z,168.10
2019-02-02T13:45:09.570Z,161.67
2019-02-02T13:47:41.940Z,171.62
2019-02-02T13:50:16.068Z,178.73
2019-02-02T13:52:48.399Z,214.87
2019-02-02T13:55:20.442Z,176.07
2019-02-02T13:57:51.875Z,190.47
2019-02-02T14:00:29.985Z,190.40
2019-02-02T14:03:03.567Z,189.00
2019-02-02T14:05:34.779Z,187.07
2019-02-02T14:08:06.679Z,179.80
2019-02-02T14:10:38.498Z,186.80
2019-02-02T14:13:13.162Z,195.60
2019-02-02T14:15:49.931Z,180.37
2019-02-02T14:18:21.842Z,183.95
2019-02-02T14:20:54.638Z,195.37
2019-02-02T14:23:27.887Z,191.13
2019-02-02T14:25:59.822Z,202.50
2019-02-02T14:28:31.683Z,199.70
2019-02-02T14:31:03.308Z,201.80
2019-02-02T14:33:35.407Z,203.33
2019-02-02T14:36:07.437Z,202.87
2019-02-02T14:38:40.444Z,189.03
2019-02-02T14:41:11.834Z,205.20
2019-02-02T14:43:44.884Z,200.93
2019-02-02T14:46:16.465Z,186.97
2019-02-02T14:48:48.254Z,207.40
2019-02-02T14:51:20.541Z,195.07
2019-02-02T14:53:53.335Z,193.15
2019-02-02T14:56:25.182Z,181.45
2019-02-02T14:58:56.927Z,213.70
2019-02-02T15:01:28.253Z,206.25
2019-02-02T15:04:03.974Z,194.30
2019-02-02T15:06:42.140Z,211.13
2019-02-02T15:09:20.577Z,209.23
2019-02-02T15:12:01.028Z,191.50
2019-02-02T15:14:42.304Z,199.20
2019-02-02T15:17:18.712Z,179.93
2019-02-02T15:19:57.733Z,204.37
2019-02-02T15:22:37.222Z,197.17
2019-02-02T15:25:13.152Z,199.93
2019-02-02T15:27:55.179Z,207.57
2019-02-02T15:30:30.640Z,205.57
2019-02-02T15:33:06.654Z,199.25
2019-02-02T15:35:39.968Z,213.22
2019-02-02T15:38:11.340Z,204.97
2019-02-02T15:40:44.296Z,208.17
2019-02-02T15:43:15.604Z,223.20
2019-02-02T15:45:47.035Z,206.27
2019-02-02T15:48:18.921Z,208.73
2019-02-02T15:50:50.397Z,210.43
2019-02-02T15:53:22.034Z,208.35
2019-02-02T15:55:53.629Z,207.20
2019-02-02T15:58:25.401Z,198.57
2019-02-02T16:00:57.378Z,211.52
2019-02-02T16:03:28.674Z,205.57
2019-02-02T16:05:59.962Z,212.83
2019-02-02T16:08:31.771Z,228.50
2019-02-02T16:11:03.023Z,230.80
2019-02-02T16:13:34.335Z,203.58
2019-02-02T16:16:08.561Z,201.23
2019-02-02T16:18:41.270Z,229.10
2019-02-02T16:21:12.575Z,218.70
2019-02-02T16:23:44.015Z,222.87
2019-02-02T16:26:16.072Z,222.33
2019-02-02T16:28:47.361Z,231.13
2019-02-02T16:31:18.717Z,219.53
2019-02-02T16:34:01.173Z,218.17
2019-02-02T16:36:23.266Z,199.50
2019-02-02T16:38:54.674Z,212.03
2019-02-02T16:41:25.980Z,222.93
2019-02-02T16:44:00.305Z,221.00
2019-02-02T16:46:31.663Z,221.82
2019-02-02T16:49:03.107Z,209.47
2019-02-02T16:51:34.694Z,223.90
2019-02-02T16:54:06.166Z,323.65
2019-02-02T16:56:37.775Z,271.57
2019-02-02T16:59:09.156Z,246.85
2019-02-02T17:01:40.788Z,285.30
2019-02-02T17:04:15.794Z,267.67
2019-02-02T17:06:45.148Z,234.55
2019-02-02T17:09:16.837Z,225.87
2019-02-02T17:11:48.228Z,235.13
2019-02-02T17:14:20.112Z,221.15
2019-02-02T17:16:51.600Z,235.23
2019-02-02T17:19:23.229Z,219.62
2019-02-02T17:21:54.941Z,234.13
2019-02-02T17:24:26.250Z,225.13
2019-02-02T17:26:57.575Z,244.60
2019-02-02T17:29:28.874Z,229.93
2019-02-02T17:32:00.542Z,237.17
2019-02-02T17:34:31.838Z,244.60
2019-02-02T17:37:03.119Z,225.77
2019-02-02T17:39:35.422Z,238.37
2019-02-02T17:42:06.663Z,234.70
2019-02-02T17:44:38.324Z,241.40
2019-02-02T17:47:09.720Z,239.72
2019-02-02T17:49:40.988Z,254.10
2019-02-02T17:52:12.323Z,235.40
2019-02-02T17:54:44.121Z,223.73
2019-02-02T17:57:15.393Z,243.85
2019-02-02T17:59:46.981Z,234.37
2019-02-02T18:02:18.399Z,239.87
2019-02-02T18:04:49.780Z,238.07
2019-02-02T18:07:21.175Z,246.67
2019-02-02T18:09:52.558Z,235.70
2019-02-02T18:12:24.003Z,261.03
2019-02-02T18:14:55.667Z,244.67
2019-02-02T18:17:27.006Z,255.20
2019-02-02T18:19:58.349Z,269.43
2019-02-02T18:22:29.640Z,261.30
2019-02-02T18:25:01.068Z,248.70
2019-02-02T18:27:32.369Z,260.47
2019-02-02T18:30:03.738Z,254.27
2019-02-02T18:32:35.419Z,267.30
2019-02-02T18:35:07.864Z,269.37
2019-02-02T18:37:39.772Z,268.65
2019-02-02T18:43:53.059Z,278.10
2019-02-02T18:46:24.779Z,265.17
2019-02-02T18:48:58.484Z,278.43
2019-02-02T18:51:30.184Z,284.40
2019-02-02T18:54:01.935Z,297.47
2019-02-02T18:56:33.692Z,277.17
2019-02-02T18:59:05.562Z,295.60
2019-02-02T19:01:37.132Z,281.70
2019-02-02T19:04:08.921Z,277.93
2019-02-02T19:06:40.635Z,302.00
2019-02-02T19:09:11.914Z,306.10
2019-02-02T19:11:43.231Z,286.03
2019-02-02T19:14:14.990Z,284.55
2019-02-02T19:16:46.587Z,285.43
2019-02-02T19:19:17.827Z,295.27
2019-02-02T19:21:49.571Z,286.98
2019-02-02T19:24:21.000Z,347.97
2019-02-02T19:26:52.953Z,384.63
2019-02-02T19:29:24.340Z,355.53
2019-02-02T19:31:57.048Z,297.60
2019-02-02T19:34:28.388Z,303.00
2019-02-02T19:36:59.866Z,301.97
2019-02-02T19:39:31.135Z,283.75
2019-02-02T19:42:02.512Z,295.97
2019-02-02T19:44:33.839Z,290.77
2019-02-02T19:47:15.852Z,289.47
2019-02-02T19:49:39.450Z,294.77
2019-02-02T19:52:11.262Z,303.03
2019-02-02T19:54:42.522Z,292.17
2019-02-02T19:57:14.194Z,291.97
2019-02-02T19:59:46.366Z,310.05
2019-02-02T20:02:18.012Z,305.37
2019-02-02T20:04:49.639Z,283.83
2019-02-02T20:07:20.927Z,278.52
2019-02-02T20:09:52.312Z,293.12
2019-02-02T20:12:23.651Z,270.77
2019-02-02T20:14:55.592Z,274.05
2019-02-02T20:17:26.865Z,264.13
2019-02-02T20:19:58.489Z,272.02
2019-02-02T20:22:29.819Z,276.17
2019-02-02T20:25:01.413Z,272.60
2019-02-02T20:27:32.945Z,281.27
2019-02-02T20:30:05.095Z,281.97
2019-02-02T20:32:36.381Z,278.07
2019-02-02T20:35:08.929Z,269.10
2019-02-02T20:37:40.606Z,294.10
2019-02-02T20:40:18.999Z,282.92
2019-02-02T20:42:50.467Z,274.43
2019-02-02T20:45:28.082Z,275.23
2019-02-02T20:47:59.779Z,285.07
2019-02-02T20:50:31.154Z,306.15
2019-02-02T20:53:02.860Z,295.77
2019-02-02T20:55:38.669Z,271.07
2019-02-02T20:58:10.036Z,270.27
2019-02-02T21:00:41.692Z,290.03
2019-02-02T21:03:13.016Z,285.67
2019-02-02T21:05:51.901Z,270.80
2019-02-02T21:08:17.720Z,261.73
2019-02-02T21:10:49.240Z,265.03
2019-02-02T21:13:21.230Z,258.63
2019-02-02T21:15:52.746Z,249.20
2019-02-02T21:18:24.051Z,237.77
2019-02-02T21:20:55.290Z,249.80
2019-02-02T21:23:26.970Z,262.45
2019-02-02T21:25:58.241Z,268.53
2019-02-02T21:28:29.597Z,274.17
2019-02-02T21:31:01.059Z,260.90
2019-02-02T21:33:32.678Z,253.27
2019-02-02T21:36:04.604Z,274.03
2019-02-02T21:38:36.219Z,299.67
2019-02-02T21:41:09.908Z,295.67
2019-02-02T21:43:41.533Z,276.10
2019-02-02T21:46:12.910Z,317.67
2019-02-02T21:48:44.895Z,301.23
2019-02-02T21:51:17.681Z,291.50
2019-02-02T21:53:49.246Z,307.50
2019-02-02T21:56:20.522Z,309.97
2019-02-02T21:58:52.430Z,322.52
2019-02-02T22:01:24.480Z,302.70
2019-02-02T22:03:56.634Z,311.40
2019-02-02T22:06:27.912Z,330.63
2019-02-02T22:08:59.552Z,319.50
2019-02-02T22:11:31.155Z,308.83
2019-02-02T22:14:02.472Z,330.10
2019-02-02T22:16:33.801Z,317.50
2019-02-02T22:19:05.080Z,331.77
2019-02-02T22:21:36.437Z,332.23
2019-02-02T22:24:07.820Z,320.27
2019-02-02T22:26:39.405Z,313.92
2019-02-02T22:29:11.407Z,299.40
2019-02-02T22:31:43.378Z,343.30
2019-02-02T22:34:14.645Z,323.00
2019-02-02T22:36:46.273Z,314.17
2019-02-02T22:39:17.602Z,307.03
2019-02-02T22:41:48.837Z,288.37
2019-02-02T22:44:33.706Z,278.20
2019-02-02T22:50:42.665Z,263.87
2019-02-02T22:53:29.969Z,247.77
2019-02-02T22:56:20.425Z,255.93
2019-02-02T22:59:17.547Z,258.40
2019-02-02T23:02:29.711Z,267.15
2019-02-02T23:05:35.461Z,261.47
2019-02-02T23:08:49.153Z,277.98
2019-02-02T23:12:29.331Z,268.97
2019-02-02T23:15:45.501Z,276.33
2019-02-02T23:18:18.956Z,283.65
2019-02-02T23:20:50.970Z,300.63
2019-02-02T23:23:23.436Z,295.13
2019-02-02T23:25:56.051Z,286.93
2019-02-02T23:28:27.623Z,279.97
2019-02-02T23:31:06.056Z,297.30
2019-02-02T23:33:37.346Z,305.12
2019-02-02T23:36:09.479Z,302.30
2019-02-02T23:38:41.120Z,286.83
2019-02-02T23:41:12.741Z,286.90
2019-02-02T23:43:47.840Z,282.70
2019-02-02T23:46:20.299Z,291.07
2019-02-02T23:48:55.568Z,290.45
2019-02-02T23:51:26.886Z,279.93
2019-02-02T23:53:58.130Z,277.97
2019-02-02T23:56:32.013Z,268.73
2019-02-02T23:59:03.367Z,280.83
